Map

Track Data

SID SEASON NUMBER BASIN SUBBASIN NAME ISO_TIME NATURE LAT LON WMO_WIND WMO_PRES WMO_AGENCY TRACK_TYPE DIST2LAND LANDFALL IFLAG USA_AGENCY USA_ATCF_ID USA_LAT USA_LON USA_RECORD USA_STATUS USA_WIND USA_PRES USA_SSHS USA_R34_NE USA_R34_SE USA_R34_SW USA_R34_NW USA_R50_NE USA_R50_SE USA_R50_SW USA_R50_NW USA_R64_NE USA_R64_SE USA_R64_SW USA_R64_NW USA_POCI USA_ROCI USA_RMW USA_EYE TOKYO_LAT TOKYO_LON TOKYO_GRADE TOKYO_WIND TOKYO_PRES TOKYO_R50_DIR TOKYO_R50_LONG TOKYO_R50_SHORT TOKYO_R30_DIR TOKYO_R30_LONG TOKYO_R30_SHORT TOKYO_LAND CMA_LAT CMA_LON CMA_CAT CMA_WIND CMA_PRES HKO_LAT HKO_LON HKO_CAT HKO_WIND HKO_PRES NEWDELHI_LAT NEWDELHI_LON NEWDELHI_GRADE NEWDELHI_WIND NEWDELHI_PRES NEWDELHI_CI NEWDELHI_DP NEWDELHI_POCI REUNION_LAT REUNION_LON REUNION_TYPE REUNION_WIND REUNION_PRES REUNION_TNUM REUNION_CI REUNION_RMW REUNION_R34_NE REUNION_R34_SE REUNION_R34_SW REUNION_R34_NW REUNION_R50_NE REUNION_R50_SE REUNION_R50_SW REUNION_R50_NW REUNION_R64_NE REUNION_R64_SE REUNION_R64_SW REUNION_R64_NW BOM_LAT BOM_LON BOM_TYPE BOM_WIND BOM_PRES BOM_TNUM BOM_CI BOM_RMW BOM_R34_NE BOM_R34_SE BOM_R34_SW BOM_R34_NW BOM_R50_NE BOM_R50_SE BOM_R50_SW BOM_R50_NW BOM_R64_NE BOM_R64_SE BOM_R64_SW BOM_R64_NW BOM_ROCI BOM_POCI BOM_EYE BOM_POS_METHOD BOM_PRES_METHOD NADI_LAT NADI_LON NADI_CAT NADI_WIND NADI_PRES WELLINGTON_LAT WELLINGTON_LON WELLINGTON_WIND WELLINGTON_PRES DS824_LAT DS824_LON DS824_STAGE DS824_WIND DS824_PRES TD9636_LAT TD9636_LON TD9636_STAGE TD9636_WIND TD9636_PRES TD9635_LAT TD9635_LON TD9635_WIND TD9635_PRES TD9635_ROCI NEUMANN_LAT NEUMANN_LON NEUMANN_CLASS NEUMANN_WIND NEUMANN_PRES MLC_LAT MLC_LON MLC_CLASS MLC_WIND MLC_PRES USA_GUST BOM_GUST BOM_GUST_PER REUNION_GUST REUNION_GUST_PER USA_SEAHGT USA_SEARAD_NE USA_SEARAD_SE USA_SEARAD_SW USA_SEARAD_NW STORM_SPEED STORM_DIR
1899196N19137 1899 19 WP MM NOT_NAMED 1899-07-14 16:00:00 NR 18.8000 137.400 main 1473 1360 __________O___ -1 18.8000 137.400 7 45 285
1899196N19137 1899 19 WP MM NOT_NAMED 1899-07-14 18:00:00 NR 19.2012 135.861 main 1360 1180 __________P___ -1 19.2012 135.861 7 44 285
1899196N19137 1899 19 WP MM NOT_NAMED 1899-07-14 21:00:00 NR 19.7512 133.648 main 1180 1006 __________P___ -1 19.7512 133.648 7 40 284
1899196N19137 1899 19 WP MM NOT_NAMED 1899-07-15 00:00:00 NR 20.2036 131.717 main 1006 870 __________P___ -1 20.2036 131.717 7 33 284
1899196N19137 1899 19 WP MM NOT_NAMED 1899-07-15 03:00:00 NR 20.5262 130.252 main 870 843 __________P___ -1 20.5262 130.252 7 26 283
1899196N19137 1899 19 WP MM NOT_NAMED 1899-07-15 04:00:00 NR 20.6000 129.900 main 833 787 __________O___ -1 20.6000 129.900 3 16 282
1899196N19137 1899 19 WP MM NOT_NAMED 1899-07-15 06:00:00 NR 20.6958 129.419 main 787 757 __________P___ -1 20.6958 129.419 3 9 281
1899196N19137 1899 19 WP MM NOT_NAMED 1899-07-15 09:00:00 NR 20.7425 129.142 main 757 757 __________P___ -1 20.7425 129.142 3 2 278
1899196N19137 1899 19 WP MM NOT_NAMED 1899-07-15 12:00:00 NR 20.7252 129.199 main 767 767 __________P___ -1 20.7252 129.199 3 2 102
1899196N19137 1899 19 WP MM NOT_NAMED 1899-07-15 15:00:00 NR 20.7002 129.361 main 787 787 __________P___ -1 20.7002 129.361 3 3 98
1899196N19137 1899 19 WP MM NOT_NAMED 1899-07-15 16:00:00 NR 20.7000 129.400 main 787 777 __________O___ -1 20.7000 129.400 4 2 304
1899196N19137 1899 19 WP MM NOT_NAMED 1899-07-15 18:00:00 NR 20.7496 129.290 main 777 761 __________P___ -1 20.7496 129.290 4 4 298
1899196N19137 1899 19 WP MM NOT_NAMED 1899-07-15 21:00:00 NR 20.8429 129.111 main 761 745 __________P___ -1 20.8429 129.111 4 4 301
1899196N19137 1899 19 WP MM NOT_NAMED 1899-07-16 00:00:00 NR 20.9505 128.929 main 749 739 __________P___ -1 20.9505 128.929 4 4 303
1899196N19137 1899 19 WP MM NOT_NAMED 1899-07-16 03:00:00 NR 21.0630 128.754 main 744 734 __________P___ -1 21.0630 128.754 4 4 305
1899196N19137 1899 19 WP MM NOT_NAMED 1899-07-16 04:00:00 NR 21.1000 128.700 main 734 725 __________O___ -1 21.1000 128.700 4 4 308
1899196N19137 1899 19 WP MM NOT_NAMED 1899-07-16 06:00:00 NR 21.1718 128.608 main 729 720 __________P___ -1 21.1718 128.608 4 3 312
1899196N19137 1899 19 WP MM NOT_NAMED 1899-07-16 09:00:00 NR 21.2798 128.482 main 724 715 __________P___ -1 21.2798 128.482 4 3 313
1899196N19137 1899 19 WP MM NOT_NAMED 1899-07-16 12:00:00 NR 21.3823 128.364 main 720 707 __________P___ -1 21.3823 128.364 4 3 311
1899196N19137 1899 19 WP MM NOT_NAMED 1899-07-16 15:00:00 NR 21.4733 128.243 main 707 707 __________P___ -1 21.4733 128.243 4 3 307
1899196N19137 1899 19 WP MM NOT_NAMED 1899-07-16 16:00:00 NR 21.5000 128.200 main 707 698 __________O___ -1 21.5000 128.200 4 3 296
1899196N19137 1899 19 WP MM NOT_NAMED 1899-07-16 18:00:00 NR 21.5369 128.108 main 698 694 __________P___ -1 21.5369 128.108 4 3 290
1899196N19137 1899 19 WP MM NOT_NAMED 1899-07-16 21:00:00 NR 21.5794 127.964 main 694 676 __________P___ -1 21.5794 127.964 4 3 287
1899196N19137 1899 19 WP MM NOT_NAMED 1899-07-17 00:00:00 NR 21.6204 127.813 main 676 666 __________P___ -1 21.6204 127.813 4 3 288
1899196N19137 1899 19 WP MM NOT_NAMED 1899-07-17 03:00:00 NR 21.6757 127.655 main 666 656 __________P___ -1 21.6757 127.655 4 3 292
1899196N19137 1899 19 WP MM NOT_NAMED 1899-07-17 04:00:00 NR 21.7000 127.600 main 656 643 __________O___ -1 21.7000 127.600 4 4 300
1899196N19137 1899 19 WP MM NOT_NAMED 1899-07-17 06:00:00 NR 21.7662 127.484 main 643 620 __________P___ -1 21.7662 127.484 4 4 304
1899196N19137 1899 19 WP MM NOT_NAMED 1899-07-17 09:00:00 NR 21.8845 127.303 main 620 597 __________P___ -1 21.8845 127.303 4 4 307
1899196N19137 1899 19 WP MM NOT_NAMED 1899-07-17 12:00:00 NR 22.0171 127.123 main 597 580 __________P___ -1 22.0171 127.123 4 4 310
1899196N19137 1899 19 WP MM NOT_NAMED 1899-07-17 15:00:00 NR 22.1547 126.953 main 580 571 __________P___ -1 22.1547 126.953 4 4 312
1899196N19137 1899 19 WP MM NOT_NAMED 1899-07-17 16:00:00 NR 22.2000 126.900 main 571 556 __________O___ -1 22.2000 126.900 4 4 313
1899196N19137 1899 19 WP MM NOT_NAMED 1899-07-17 18:00:00 NR 22.2753 126.813 main 556 542 __________P___ -1 22.2753 126.813 4 3 315
1899196N19137 1899 19 WP MM NOT_NAMED 1899-07-17 21:00:00 NR 22.3883 126.695 main 542 528 __________P___ -1 22.3883 126.695 4 3 317
1899196N19137 1899 19 WP MM NOT_NAMED 1899-07-18 00:00:00 NR 22.5094 126.579 main 528 505 __________P___ -1 22.5094 126.579 4 3 319
1899196N19137 1899 19 WP MM NOT_NAMED 1899-07-18 03:00:00 NR 22.6482 126.449 main 505 500 __________P___ -1 22.6482 126.449 4 4 320
1899196N19137 1899 19 WP MM NOT_NAMED 1899-07-18 04:00:00 NR 22.7000 126.400 main 500 486 __________O___ -1 22.7000 126.400 4 4 317
1899196N19137 1899 19 WP MM NOT_NAMED 1899-07-18 06:00:00 NR 22.8084 126.284 main 486 458 __________P___ -1 22.8084 126.284 4 5 315
1899196N19137 1899 19 WP MM NOT_NAMED 1899-07-18 09:00:00 NR 22.9896 126.090 main 458 431 __________P___ -1 22.9896 126.090 4 5 316
1899196N19137 1899 19 WP MM NOT_NAMED 1899-07-18 12:00:00 NR 23.1934 125.883 main 431 405 __________P___ -1 23.1934 125.883 4 6 318
1899196N19137 1899 19 WP MM NOT_NAMED 1899-07-18 15:00:00 NR 23.4196 125.670 main 405 391 __________P___ -1 23.4196 125.670 4 6 320
1899196N19137 1899 19 WP MM NOT_NAMED 1899-07-18 16:00:00 NR 23.5000 125.600 main 391 378 __________O___ -1 23.5000 125.600 4 6 321
1899196N19137 1899 19 WP MM NOT_NAMED 1899-07-18 18:00:00 NR 23.6372 125.476 main 378 351 __________P___ -1 23.6372 125.476 4 6 322
1899196N19137 1899 19 WP MM NOT_NAMED 1899-07-18 21:00:00 NR 23.8614 125.292 main 351 327 __________P___ -1 23.8614 125.292 4 6 325
1899196N19137 1899 19 WP MM NOT_NAMED 1899-07-19 00:00:00 NR 24.1298 125.097 main 327 297 __________P___ -1 24.1298 125.097 4 7 328
1899196N19137 1899 19 WP MM NOT_NAMED 1899-07-19 03:00:00 NR 24.4677 124.879 main 297 285 __________P___ -1 24.4677 124.879 4 8 330
1899196N19137 1899 19 WP MM NOT_NAMED 1899-07-19 04:00:00 NR 24.6000 124.800 main 285 262 __________O___ -1 24.6000 124.800 4 10 331
1899196N19137 1899 19 WP MM NOT_NAMED 1899-07-19 06:00:00 NR 24.9041 124.613 main 262 235 __________P___ -1 24.9041 124.613 4 11 332
1899196N19137 1899 19 WP MM NOT_NAMED 1899-07-19 09:00:00 NR 25.4295 124.307 main 235 224 __________P___ -1 25.4295 124.307 4 12 333
1899196N19137 1899 19 WP MM NOT_NAMED 1899-07-19 12:00:00 NR 26.0074 123.991 main 229 226 __________P___ -1 26.0074 123.991 4 13 335
1899196N19137 1899 19 WP MM NOT_NAMED 1899-07-19 15:00:00 NR 26.6033 123.692 main 246 246 __________P___ -1 26.6033 123.692 4 13 336
1899196N19137 1899 19 WP MM NOT_NAMED 1899-07-19 16:00:00 NR 26.8000 123.600 main 256 215 __________O___ -1 26.8000 123.600 4 13 338
1899196N19137 1899 19 WP MM NOT_NAMED 1899-07-19 18:00:00 NR 27.1979 123.431 main 215 166 __________P___ -1 27.1979 123.431 4 13 340
1899196N19137 1899 19 WP MM NOT_NAMED 1899-07-19 21:00:00 NR 27.7958 123.202 main 166 131 __________P___ -1 27.7958 123.202 4 12 342
1899196N19137 1899 19 WP MM NOT_NAMED 1899-07-20 00:00:00 NR 28.3613 123.006 main 131 84 __________P___ -1 28.3613 123.006 4 11 344
1899196N19137 1899 19 WP MM NOT_NAMED 1899-07-20 03:00:00 NR 28.8569 122.845 main 84 80 __________P___ -1 28.8569 122.845 4 10 344
1899196N19137 1899 19 WP MM NOT_NAMED 1899-07-20 04:00:00 NR 29.0000 122.800 main 80 67 __________O___ -1 29.0000 122.800 4 8 341
1899196N19137 1899 19 WP MM NOT_NAMED 1899-07-20 06:00:00 NR 29.2429 122.697 main 67 62 __________P___ -1 29.2429 122.697 4 7 339
1899196N19137 1899 19 WP MM NOT_NAMED 1899-07-20 09:00:00 NR 29.5318 122.575 main 67 57 __________P___ -1 29.5318 122.575 4 5 341
1899196N19137 1899 19 WP MM NOT_NAMED 1899-07-20 12:00:00 NR 29.7552 122.501 main 57 57 __________P___ -1 29.7552 122.501 4 4 349
1899196N19137 1899 19 WP MM NOT_NAMED 1899-07-20 15:00:00 NR 29.9414 122.489 main 58 61 __________P___ -1 29.9414 122.489 4 4 0
1899196N19137 1899 19 WP MM NOT_NAMED 1899-07-20 16:00:00 NR 30.0000 122.500 main 61 61 __________O___ -1 30.0000 122.500 4 5 16
1899196N19137 1899 19 WP MM NOT_NAMED 1899-07-20 18:00:00 NR 30.1601 122.553 main 80 80 __________P___ -1 30.1601 122.553 4 5 23
1899196N19137 1899 19 WP MM NOT_NAMED 1899-07-20 21:00:00 NR 30.3819 122.690 main 94 94 __________P___ -1 30.3819 122.690 4 5 34
1899196N19137 1899 19 WP MM NOT_NAMED 1899-07-21 00:00:00 NR 30.5622 122.866 main 101 101 __________P___ -1 30.5622 122.866 4 4 46
1899196N19137 1899 19 WP MM NOT_NAMED 1899-07-21 03:00:00 NR 30.6789 123.045 main 107 116 __________P___ -1 30.6789 123.045 4 4 56
1899196N19137 1899 19 WP MM NOT_NAMED 1899-07-21 04:00:00 NR 30.7000 123.100 main 116 116 __________O___ -1 30.7000 123.100 4 2 77
1899196N19137 1899 19 WP MM NOT_NAMED 1899-07-21 06:00:00 NR 30.7071 123.184 main 125 125 __________P___ -1 30.7071 123.184 4 2 105
1899196N19137 1899 19 WP MM NOT_NAMED 1899-07-21 09:00:00 NR 30.6546 123.296 main 135 135 __________P___ -1 30.6546 123.296 4 2 130
1899196N19137 1899 19 WP MM NOT_NAMED 1899-07-21 12:00:00 NR 30.5543 123.394 main 146 149 __________P___ -1 30.5543 123.394 4 3 145
1899196N19137 1899 19 WP MM NOT_NAMED 1899-07-21 15:00:00 NR 30.4373 123.476 main 162 162 __________P___ -1 30.4373 123.476 4 3 151
1899196N19137 1899 19 WP MM NOT_NAMED 1899-07-21 16:00:00 NR 30.4000 123.500 main 162 162 __________O___ -1 30.4000 123.500 4 2 151
1899196N19137 1899 19 WP MM NOT_NAMED 1899-07-21 18:00:00 NR 30.3524 123.518 main 162 163 __________P___ -1 30.3524 123.518 4 1 162
1899196N19137 1899 19 WP MM NOT_NAMED 1899-07-21 21:00:00 NR 30.2811 123.533 main 163 160 __________P___ -1 30.2811 123.533 4 2 168
1899196N19137 1899 19 WP MM NOT_NAMED 1899-07-22 00:00:00 NR 30.2074 123.565 main 169 166 __________P___ -1 30.2074 123.565 4 2 146
1899196N19137 1899 19 WP MM NOT_NAMED 1899-07-22 03:00:00 NR 30.1282 123.652 main 176 176 __________P___ -1 30.1282 123.652 4 2 133
1899196N19137 1899 19 WP MM NOT_NAMED 1899-07-22 04:00:00 NR 30.1000 123.700 main 176 176 __________O___ -1 30.1000 123.700 4 4 121
1899196N19137 1899 19 WP MM NOT_NAMED 1899-07-22 06:00:00 NR 30.0314 123.841 main 184 193 __________P___ -1 30.0314 123.841 4 5 116
1899196N19137 1899 19 WP MM NOT_NAMED 1899-07-22 09:00:00 NR 29.9218 124.114 main 212 212 __________P___ -1 29.9218 124.114 4 6 113
1899196N19137 1899 19 WP MM NOT_NAMED 1899-07-22 12:00:00 NR 29.8153 124.438 main 240 250 __________P___ -1 29.8153 124.438 4 6 109
1899196N19137 1899 19 WP MM NOT_NAMED 1899-07-22 15:00:00 NR 29.7246 124.785 main 276 276 __________P___ -1 29.7246 124.785 4 6 106
1899196N19137 1899 19 WP MM NOT_NAMED 1899-07-22 16:00:00 NR 29.7000 124.900 main 285 285 __________O___ -1 29.7000 124.900 4 6 102
1899196N19137 1899 19 WP MM NOT_NAMED 1899-07-22 18:00:00 NR 29.6613 125.127 main 304 304 __________P___ -1 29.6613 125.127 4 6 99
1899196N19137 1899 19 WP MM NOT_NAMED 1899-07-22 21:00:00 NR 29.6252 125.457 main 341 341 __________P___ -1 29.6252 125.457 4 6 95
1899196N19137 1899 19 WP MM NOT_NAMED 1899-07-23 00:00:00 NR 29.6080 125.778 main 370 370 __________P___ -1 29.6080 125.778 4 6 92
1899196N19137 1899 19 WP MM NOT_NAMED 1899-07-23 03:00:00 NR 29.6013 126.095 main 399 399 __________P___ -1 29.6013 126.095 4 6 91
1899196N19137 1899 19 WP MM NOT_NAMED 1899-07-23 04:00:00 NR 29.6000 126.200 main 401 __________O___ -1 29.6000 126.200 4 5 91

Digital Typhoon Data and Search

About IBTrACS Database

This database is a web-friendly format of International Best Track Archive for Climate Stewardship (IBTrACS), a global best track data archive curated by NOAA dating back to 1842.

Updated: 2021-12-03